createdAt,value
2016-11-16T00:00:36.714Z,0
2016-11-16T00:01:46.990Z,0
2016-11-16T00:02:57.262Z,0
2016-11-16T00:04:06.926Z,0
2016-11-16T00:05:17.198Z,0
2016-11-16T00:06:27.171Z,0
2016-11-16T00:07:37.150Z,0
2016-11-16T00:08:47.767Z,0
2016-11-16T00:09:57.739Z,0
2016-11-16T00:11:08.015Z,0
2016-11-16T00:12:18.302Z,0
2016-11-16T00:13:28.276Z,0
2016-11-16T00:14:38.262Z,0
2016-11-16T00:15:48.223Z,0
2016-11-16T00:16:58.195Z,0
2016-11-16T00:18:08.158Z,0
2016-11-16T00:19:18.433Z,0
2016-11-16T00:20:28.705Z,0
2016-11-16T00:21:38.987Z,0
2016-11-16T00:22:49.266Z,0
2016-11-16T00:23:59.578Z,0
2016-11-16T00:25:09.858Z,0
2016-11-16T00:26:19.834Z,0
2016-11-16T00:27:29.810Z,0
2016-11-16T00:28:39.789Z,0
2016-11-16T00:29:49.749Z,0
2016-11-16T00:31:00.030Z,0
2016-11-16T00:32:10.298Z,0
2016-11-16T00:33:20.269Z,0
2016-11-16T00:34:30.555Z,0
2016-11-16T00:35:40.520Z,0
2016-11-16T00:36:50.491Z,0
2016-11-16T00:38:00.761Z,0
2016-11-16T00:39:10.437Z,0
2016-11-16T00:40:20.406Z,0
2016-11-16T00:41:30.078Z,0
2016-11-16T00:42:39.735Z,0
2016-11-16T00:43:49.395Z,0
2016-11-16T00:44:59.667Z,0
2016-11-16T00:46:09.656Z,0
2016-11-16T00:47:19.335Z,0
2016-11-16T00:48:29.343Z,0
2016-11-16T00:49:39.623Z,0
2016-11-16T00:50:49.896Z,0
2016-11-16T00:51:59.872Z,0
2016-11-16T00:53:09.844Z,0
2016-11-16T00:54:19.515Z,0
2016-11-16T00:55:29.803Z,0
2016-11-16T00:56:39.777Z,0
2016-11-16T00:57:49.753Z,0
2016-11-16T00:59:00.064Z,0
2016-11-16T01:00:10.041Z,0
2016-11-16T01:01:19.686Z,0
2016-11-16T01:02:29.349Z,0
2016-11-16T01:03:39.304Z,0
2016-11-16T01:04:48.955Z,0
2016-11-16T01:05:59.249Z,0
2016-11-16T01:07:09.206Z,0
2016-11-16T01:08:19.497Z,0
2016-11-16T01:09:29.764Z,0
2016-11-16T01:10:39.730Z,0
2016-11-16T01:11:49.997Z,0
2016-11-16T01:13:00.274Z,0
2016-11-16T01:14:09.935Z,0
2016-11-16T01:15:20.221Z,0
2016-11-16T01:16:30.498Z,0
2016-11-16T01:17:40.470Z,0
2016-11-16T01:18:50.427Z,0
2016-11-16T01:20:00.393Z,0
2016-11-16T01:21:10.046Z,0
2016-11-16T01:22:20.016Z,0
2016-11-16T01:23:30.284Z,0
2016-11-16T01:24:40.241Z,0
2016-11-16T01:25:50.241Z,0
2016-11-16T01:27:00.500Z,0
2016-11-16T01:28:10.800Z,0
2016-11-16T01:29:21.097Z,0
2016-11-16T01:30:31.070Z,0
2016-11-16T01:31:41.371Z,0
2016-11-16T01:32:51.346Z,0
2016-11-16T01:34:01.321Z,0
2016-11-16T01:35:11.588Z,0
2016-11-16T01:36:21.859Z,0
2016-11-16T01:37:32.128Z,0
2016-11-16T01:38:42.412Z,0
2016-11-16T01:39:52.369Z,0
2016-11-16T01:41:02.674Z,0
2016-11-16T01:42:12.635Z,0
2016-11-16T01:43:22.903Z,0
2016-11-16T01:44:33.188Z,0
2016-11-16T01:45:43.151Z,0
2016-11-16T01:46:53.433Z,0
2016-11-16T01:48:03.713Z,0
2016-11-16T01:49:14.021Z,0
2016-11-16T01:50:23.983Z,0
2016-11-16T01:51:34.244Z,0
2016-11-16T01:52:44.220Z,0
2016-11-16T01:53:53.888Z,0
2016-11-16T01:55:03.849Z,0
2016-11-16T01:56:13.825Z,0
2016-11-16T01:57:24.108Z,0
2016-11-16T01:58:34.079Z,0
2016-11-16T01:59:44.046Z,0
2016-11-16T02:00:54.008Z,0
2016-11-16T02:02:04.006Z,0
2016-11-16T02:03:13.672Z,0
2016-11-16T02:04:23.948Z,0
2016-11-16T02:05:33.911Z,0
2016-11-16T02:06:43.886Z,0
2016-11-16T02:07:54.159Z,0
2016-11-16T02:09:04.130Z,0
2016-11-16T02:10:13.481Z,0
2016-11-16T02:11:23.439Z,0
2016-11-16T02:12:33.397Z,0
2016-11-16T02:13:43.363Z,0
2016-11-16T02:14:53.659Z,0
2016-11-16T02:16:03.640Z,0
2016-11-16T02:17:13.606Z,0
2016-11-16T02:18:23.578Z,0
2016-11-16T02:19:33.541Z,0
2016-11-16T02:20:42.888Z,0
2016-11-16T02:21:53.154Z,0
2016-11-16T02:23:03.431Z,0
2016-11-16T02:24:12.787Z,0
2016-11-16T02:25:23.054Z,0
2016-11-16T02:26:33.046Z,0
2016-11-16T02:27:43.322Z,0
2016-11-16T02:28:53.598Z,0
2016-11-16T02:30:03.875Z,0
2016-11-16T02:31:14.138Z,0
2016-11-16T02:32:24.409Z,0
2016-11-16T02:33:34.721Z,0
2016-11-16T02:34:44.721Z,0
2016-11-16T02:35:54.986Z,0
2016-11-16T02:37:05.259Z,0
2016-11-16T02:38:15.526Z,0
2016-11-16T02:39:25.800Z,0
2016-11-16T02:40:35.775Z,0
2016-11-16T02:41:46.047Z,0
2016-11-16T02:42:55.692Z,0
2016-11-16T02:44:05.044Z,0
2016-11-16T02:45:15.021Z,0
2016-11-16T02:46:24.993Z,0
2016-11-16T02:47:35.271Z,0
2016-11-16T02:48:45.231Z,0
2016-11-16T02:49:55.199Z,0
2016-11-16T02:51:05.481Z,0
2016-11-16T02:52:15.450Z,0
2016-11-16T02:53:25.737Z,0
2016-11-16T02:54:35.089Z,0
2016-11-16T02:55:45.045Z,0
2016-11-16T02:56:55.032Z,0
2016-11-16T02:58:05.303Z,0
2016-11-16T02:59:15.255Z,0
2016-11-16T03:00:25.521Z,0
2016-11-16T03:32:33.618Z,0
2016-11-16T03:33:43.920Z,0
2016-11-16T03:34:54.184Z,0
2016-11-16T03:36:04.450Z,0
2016-11-16T03:37:14.710Z,0
2016-11-16T03:38:25.023Z,0
2016-11-16T03:39:35.294Z,0
2016-11-16T03:40:45.554Z,0
2016-11-16T03:41:55.822Z,0
2016-11-16T03:43:06.089Z,0
2016-11-16T03:44:16.363Z,0
2016-11-16T03:45:26.646Z,0
2016-11-16T03:46:36.615Z,0
2016-11-16T03:47:46.584Z,0
2016-11-16T03:48:56.554Z,0
2016-11-16T03:50:06.828Z,0
2016-11-16T03:51:17.113Z,0
2016-11-16T03:52:27.386Z,0
2016-11-16T03:53:37.333Z,0
2016-11-16T03:54:47.315Z,0
2016-11-16T03:55:57.311Z,0
2016-11-16T03:57:07.283Z,0
2016-11-16T03:58:17.550Z,0
2016-11-16T03:59:27.522Z,0
2016-11-16T04:00:37.488Z,0
2016-11-16T04:01:47.469Z,0
2016-11-16T04:02:57.441Z,0
2016-11-16T04:04:07.720Z,0
2016-11-16T04:05:18.014Z,0
2016-11-16T04:06:27.671Z,0
2016-11-16T04:07:37.623Z,0
2016-11-16T04:08:47.585Z,0
2016-11-16T04:09:57.851Z,0
2016-11-16T04:11:08.124Z,0
2016-11-16T04:12:18.416Z,0
2016-11-16T04:13:28.689Z,0
2016-11-16T04:14:38.654Z,0
2016-11-16T04:15:48.931Z,0
2016-11-16T04:16:58.912Z,0
2016-11-16T04:18:09.174Z,0
2016-11-16T04:19:19.441Z,0
2016-11-16T04:20:29.403Z,0
2016-11-16T04:21:39.368Z,0
2016-11-16T04:22:49.653Z,0
2016-11-16T04:23:59.982Z,0
2016-11-16T04:25:10.260Z,0
2016-11-16T04:26:20.527Z,0
2016-11-16T04:27:30.799Z,0
2016-11-16T04:28:41.080Z,0
2016-11-16T04:29:51.363Z,0
2016-11-16T04:31:01.653Z,0
2016-11-16T04:32:11.945Z,0
2016-11-16T04:33:22.227Z,0
2016-11-16T04:34:32.192Z,0
2016-11-16T04:35:42.465Z,0
2016-11-16T04:36:52.422Z,0
2016-11-16T04:38:02.384Z,0
2016-11-16T04:39:12.662Z,0
2016-11-16T04:40:22.627Z,0
2016-11-16T04:41:32.600Z,0
2016-11-16T04:42:42.876Z,0
2016-11-16T04:43:53.143Z,0
2016-11-16T04:45:03.419Z,0
2016-11-16T04:46:13.387Z,0
2016-11-16T04:47:23.364Z,0
2016-11-16T04:48:33.640Z,0
2016-11-16T04:49:43.927Z,0
2016-11-16T04:50:54.217Z,0
2016-11-16T04:52:04.193Z,0
2016-11-16T04:53:14.473Z,0
2016-11-16T04:54:24.757Z,0
2016-11-16T04:55:34.420Z,0
2016-11-16T04:56:44.693Z,0
2016-11-16T04:57:54.995Z,0
2016-11-16T04:59:05.296Z,0
2016-11-16T05:00:15.281Z,0
2016-11-16T05:01:24.943Z,0
2016-11-16T05:02:35.231Z,0
2016-11-16T05:03:45.516Z,0
2016-11-16T05:04:55.524Z,0
2016-11-16T05:06:05.797Z,0
2016-11-16T05:07:16.076Z,0
2016-11-16T05:08:26.038Z,0
2016-11-16T05:09:36.331Z,0
2016-11-16T05:10:46.297Z,0
2016-11-16T05:11:56.566Z,0
2016-11-16T05:13:06.531Z,0
2016-11-16T05:14:16.809Z,0
2016-11-16T05:15:27.104Z,0
2016-11-16T05:16:37.376Z,0
2016-11-16T05:17:47.367Z,0
2016-11-16T05:18:57.038Z,0
2016-11-16T05:20:06.700Z,0
2016-11-16T05:21:16.670Z,0
2016-11-16T05:22:26.939Z,0
2016-11-16T05:23:37.236Z,0
2016-11-16T05:24:47.204Z,0
2016-11-16T05:25:57.483Z,0
2016-11-16T05:27:07.441Z,0
2016-11-16T05:28:17.398Z,0
2016-11-16T05:29:27.371Z,0
2016-11-16T05:30:37.671Z,0
2016-11-16T05:31:47.655Z,0
2016-11-16T05:32:57.619Z,0
2016-11-16T05:34:07.883Z,0
2016-11-16T05:35:18.166Z,0
2016-11-16T05:36:28.470Z,0
2016-11-16T05:37:38.738Z,0
2016-11-16T05:38:48.723Z,0
2016-11-16T05:39:59.007Z,0
2016-11-16T05:41:09.293Z,4
2016-11-16T05:42:18.935Z,4
2016-11-16T05:43:28.904Z,4
2016-11-16T05:44:39.187Z,0
2016-11-16T05:45:49.465Z,0
2016-11-16T05:46:59.423Z,4
2016-11-16T05:48:09.703Z,4
2016-11-16T05:49:19.989Z,4
2016-11-16T05:50:30.267Z,8
2016-11-16T05:51:40.555Z,8
2016-11-16T05:52:50.844Z,8
2016-11-16T05:54:01.117Z,12
2016-11-16T05:55:11.403Z,12
2016-11-16T05:56:21.686Z,12
2016-11-16T05:57:31.658Z,12
2016-11-16T05:58:41.934Z,12
2016-11-16T05:59:51.942Z,12
2016-11-16T06:01:01.924Z,16
2016-11-16T06:02:12.201Z,20
2016-11-16T06:03:22.473Z,20
2016-11-16T06:04:32.802Z,24
2016-11-16T06:05:43.080Z,24
2016-11-16T06:06:53.368Z,24
2016-11-16T06:08:03.638Z,32
2016-11-16T06:09:13.924Z,32
2016-11-16T06:10:24.191Z,32
2016-11-16T06:11:34.465Z,36
2016-11-16T06:12:44.131Z,44
2016-11-16T06:13:54.397Z,52
2016-11-16T06:15:04.688Z,52
2016-11-16T06:16:15.034Z,52
2016-11-16T06:17:25.001Z,56
2016-11-16T06:18:34.969Z,64
2016-11-16T06:19:45.272Z,76
2016-11-16T06:20:55.538Z,76
2016-11-16T06:22:05.809Z,88
2016-11-16T06:23:16.086Z,100
2016-11-16T06:24:26.063Z,116
2016-11-16T06:25:36.346Z,120
2016-11-16T06:26:46.636Z,124
2016-11-16T06:27:56.594Z,124
2016-11-16T06:29:06.870Z,136
2016-11-16T06:30:17.148Z,136
2016-11-16T06:31:27.439Z,144
2016-11-16T06:32:37.142Z,152
2016-11-16T06:33:47.486Z,156
2016-11-16T06:34:57.145Z,148
2016-11-16T06:36:07.112Z,164
2016-11-16T06:37:16.788Z,168
2016-11-16T06:38:27.068Z,180
2016-11-16T06:39:36.751Z,204
2016-11-16T06:40:46.724Z,220
2016-11-16T06:41:56.991Z,240
2016-11-16T06:43:07.273Z,272
2016-11-16T06:44:17.544Z,272
2016-11-16T06:45:27.520Z,256
2016-11-16T06:46:36.866Z,268
2016-11-16T06:47:47.148Z,280
2016-11-16T06:48:57.429Z,288
2016-11-16T06:50:07.721Z,288
2016-11-16T06:51:18.028Z,280
2016-11-16T06:52:28.301Z,296
2016-11-16T06:53:38.268Z,292
2016-11-16T06:54:47.924Z,276
2016-11-16T06:55:57.900Z,280
2016-11-16T06:57:08.188Z,284
2016-11-16T06:58:18.473Z,288
2016-11-16T06:59:28.437Z,288
2016-11-16T07:00:38.407Z,316
2016-11-16T07:01:48.694Z,344
2016-11-16T07:02:58.972Z,356
2016-11-16T07:04:09.307Z,372
2016-11-16T07:05:19.604Z,356
2016-11-16T07:06:29.267Z,424
2016-11-16T07:07:39.230Z,448
2016-11-16T07:08:49.512Z,464
2016-11-16T07:09:59.482Z,464
2016-11-16T07:11:09.186Z,448
2016-11-16T07:12:19.456Z,464
2016-11-16T07:13:29.748Z,532
2016-11-16T07:14:39.714Z,600
2016-11-16T07:15:49.686Z,576
2016-11-16T07:16:59.961Z,560
2016-11-16T07:18:09.624Z,636
2016-11-16T07:19:19.590Z,656
2016-11-16T07:20:29.569Z,668
2016-11-16T07:21:39.853Z,768
2016-11-16T07:22:50.142Z,924
2016-11-16T07:24:00.437Z,984
2016-11-16T07:25:10.409Z,1004
2016-11-16T07:26:20.696Z,996
2016-11-16T07:27:30.981Z,1004
2016-11-16T07:28:40.958Z,976
2016-11-16T07:29:50.961Z,1016
2016-11-16T07:31:01.243Z,1044
2016-11-16T07:32:11.245Z,1080
2016-11-16T07:33:21.226Z,1060
2016-11-16T07:34:31.200Z,1120
2016-11-16T07:35:41.495Z,1096
2016-11-16T07:36:51.774Z,1024
2016-11-16T07:38:02.048Z,1156
2016-11-16T07:39:12.349Z,1280
2016-11-16T07:40:22.623Z,1324
2016-11-16T07:41:32.910Z,1336
2016-11-16T07:42:43.195Z,1408
2016-11-16T07:43:53.472Z,1408
2016-11-16T07:45:03.794Z,1532
2016-11-16T07:46:13.766Z,1532
2016-11-16T07:47:23.732Z,1436
2016-11-16T07:48:34.005Z,1304
2016-11-16T07:49:43.976Z,1388
2016-11-16T07:50:54.272Z,1464
2016-11-16T07:52:04.544Z,1724
2016-11-16T07:53:14.195Z,1668
2016-11-16T07:54:23.873Z,1432
2016-11-16T07:55:34.155Z,1396
2016-11-16T07:56:43.815Z,1292
2016-11-16T07:57:54.097Z,1176
2016-11-16T07:59:03.453Z,1200
2016-11-16T08:00:13.729Z,1152
2016-11-16T08:01:23.993Z,1104
2016-11-16T08:02:33.974Z,1060
2016-11-16T08:03:43.642Z,952
2016-11-16T08:04:53.613Z,980
2016-11-16T08:06:03.884Z,1032
2016-11-16T08:07:13.562Z,1044
2016-11-16T08:08:23.532Z,972
2016-11-16T08:09:33.771Z,908
2016-11-16T08:10:43.745Z,956
2016-11-16T08:11:53.399Z,1036
2016-11-16T08:13:03.665Z,904
2016-11-16T08:14:13.932Z,868
2016-11-16T08:15:23.914Z,776
2016-11-16T08:16:33.888Z,756
2016-11-16T08:17:43.590Z,728
2016-11-16T08:18:53.872Z,756
2016-11-16T08:20:03.533Z,852
2016-11-16T08:21:13.806Z,876
2016-11-16T08:22:24.098Z,832
2016-11-16T08:23:34.104Z,784
2016-11-16T08:24:44.380Z,768
2016-11-16T08:25:54.668Z,784
2016-11-16T08:27:04.359Z,800
2016-11-16T08:28:14.636Z,736
2016-11-16T08:29:24.292Z,696
2016-11-16T08:30:33.954Z,620
2016-11-16T08:31:44.259Z,592
2016-11-16T08:32:54.549Z,684
2016-11-16T08:34:04.834Z,892
2016-11-16T08:35:14.811Z,1084
2016-11-16T08:36:24.795Z,1068
2016-11-16T08:37:34.776Z,1084
2016-11-16T08:38:45.093Z,1332
2016-11-16T08:39:55.366Z,1852
2016-11-16T08:41:05.337Z,2076
2016-11-16T08:42:15.022Z,1776
2016-11-16T08:43:24.383Z,1668
2016-11-16T08:44:34.391Z,1596
2016-11-16T08:45:44.052Z,1496
2016-11-16T08:46:53.724Z,1240
2016-11-16T08:48:03.727Z,1068
2016-11-16T08:49:14.011Z,1068
2016-11-16T08:50:23.969Z,1176
2016-11-16T08:51:34.282Z,1364
2016-11-16T08:52:44.578Z,1616
2016-11-16T08:53:54.545Z,1780
2016-11-16T08:55:04.836Z,1880
2016-11-16T08:56:15.109Z,1980
2016-11-16T08:57:25.389Z,1956
2016-11-16T08:58:35.409Z,1740
2016-11-16T08:59:45.688Z,1652
2016-11-16T09:00:55.689Z,1488
2016-11-16T09:02:05.056Z,1352
2016-11-16T09:03:15.323Z,1220
2016-11-16T09:04:25.304Z,1268
2016-11-16T09:05:35.596Z,1340
2016-11-16T09:06:45.513Z,1368
2016-11-16T09:07:55.768Z,1380
2016-11-16T09:09:06.034Z,1500
2016-11-16T09:10:16.303Z,1580
2016-11-16T09:11:26.270Z,1616
2016-11-16T09:12:35.939Z,1740
2016-11-16T09:13:45.906Z,1836
2016-11-16T09:14:55.919Z,1860
2016-11-16T09:16:05.886Z,1668
2016-11-16T09:17:16.148Z,1548
2016-11-16T09:18:26.428Z,1484
2016-11-16T09:19:36.717Z,1560
2016-11-16T09:20:46.382Z,1768
2016-11-16T09:21:56.055Z,1864
2016-11-16T09:23:06.018Z,1864
2016-11-16T09:24:15.683Z,1760
2016-11-16T09:25:26.003Z,1768
2016-11-16T09:26:35.985Z,1640
2016-11-16T09:27:45.973Z,1796
2016-11-16T09:28:55.345Z,1648
2016-11-16T09:30:05.641Z,1572
2016-11-16T09:31:15.971Z,1632
2016-11-16T09:32:26.290Z,1696
2016-11-16T09:33:36.245Z,1696
2016-11-16T09:34:46.227Z,1884
2016-11-16T09:35:56.184Z,1956
2016-11-16T09:37:05.536Z,1876
2016-11-16T09:38:15.830Z,1852
2016-11-16T09:39:26.361Z,1664
2016-11-16T09:40:36.361Z,1720
2016-11-16T09:41:46.041Z,1844
2016-11-16T09:42:56.023Z,2000
2016-11-16T09:44:05.367Z,2380
2016-11-16T09:45:15.650Z,2772
2016-11-16T09:46:25.920Z,2872
2016-11-16T09:47:35.896Z,2840
2016-11-16T09:48:45.615Z,2656
2016-11-16T09:49:55.893Z,2512
2016-11-16T09:51:05.570Z,2548
2016-11-16T09:52:15.540Z,2740
2016-11-16T09:53:25.512Z,2772
2016-11-16T09:54:35.796Z,2692
2016-11-16T09:55:45.768Z,2416
2016-11-16T09:56:55.743Z,2128
2016-11-16T09:58:06.036Z,1956
2016-11-16T09:59:16.048Z,1864
2016-11-16T10:00:26.025Z,1996
2016-11-16T10:01:35.693Z,1948
2016-11-16T10:02:45.668Z,1812
2016-11-16T10:03:55.699Z,1788
2016-11-16T10:05:05.667Z,1948
2016-11-16T10:06:15.967Z,2020
2016-11-16T10:07:25.334Z,1820
2016-11-16T10:08:35.611Z,1708
2016-11-16T10:09:45.903Z,1756
2016-11-16T10:10:56.191Z,1840
2016-11-16T10:12:06.466Z,1784
2016-11-16T10:13:16.433Z,1632
2016-11-16T10:14:26.704Z,1572
2016-11-16T10:15:36.849Z,1592
2016-11-16T10:16:47.126Z,1572
2016-11-16T10:17:57.100Z,1580
2016-11-16T10:19:07.070Z,1736
2016-11-16T10:20:17.047Z,1668
2016-11-16T10:21:27.369Z,1716
2016-11-16T10:22:37.342Z,1796
2016-11-16T10:23:47.620Z,2004
2016-11-16T10:24:57.905Z,2028
2016-11-16T10:26:08.197Z,2096
2016-11-16T10:27:18.167Z,2080
2016-11-16T10:28:28.449Z,2024
2016-11-16T10:29:38.416Z,2216
2016-11-16T10:30:48.085Z,2144
2016-11-16T10:31:58.419Z,2052
2016-11-16T10:33:08.708Z,2164
2016-11-16T10:34:18.374Z,1948
2016-11-16T10:35:28.647Z,1860
2016-11-16T10:36:38.627Z,1828
2016-11-16T10:37:48.595Z,1984
2016-11-16T10:38:58.901Z,2400
2016-11-16T10:40:08.889Z,2288
2016-11-16T10:41:18.874Z,2200
2016-11-16T10:42:29.254Z,2268
2016-11-16T10:43:39.237Z,2164
2016-11-16T10:44:49.558Z,1964
2016-11-16T10:45:59.852Z,1812
2016-11-16T10:47:09.863Z,1672
2016-11-16T10:48:20.142Z,1640
2016-11-16T10:49:30.448Z,1708
2016-11-16T10:50:40.769Z,1712
2016-11-16T10:51:51.118Z,1740
2016-11-16T10:53:01.109Z,1688
2016-11-16T10:54:11.411Z,1580
2016-11-16T10:55:21.725Z,1532
2016-11-16T10:56:31.733Z,1380
2016-11-16T10:57:41.731Z,1424
2016-11-16T10:58:52.006Z,1308
2016-11-16T11:00:01.666Z,1156
2016-11-16T11:01:11.969Z,1088
2016-11-16T11:02:22.249Z,1056
2016-11-16T11:03:32.222Z,1056
2016-11-16T11:04:42.198Z,1080
2016-11-16T11:05:52.523Z,1208
2016-11-16T11:07:02.555Z,1268
2016-11-16T11:08:13.184Z,1292
2016-11-16T11:09:23.154Z,1368
2016-11-16T11:10:33.434Z,1340
2016-11-16T11:11:43.724Z,1272
2016-11-16T11:12:54.044Z,1220
2016-11-16T11:14:04.033Z,1252
2016-11-16T11:15:14.018Z,1272
2016-11-16T11:16:23.672Z,1220
2016-11-16T11:17:33.016Z,1328
2016-11-16T11:18:43.299Z,1372
2016-11-16T11:19:52.964Z,1428
2016-11-16T11:21:02.670Z,1436
2016-11-16T11:22:12.999Z,1636
2016-11-16T11:23:22.384Z,1596
2016-11-16T11:24:32.698Z,1628
2016-11-16T11:25:42.663Z,1712
2016-11-16T11:26:52.629Z,1560
2016-11-16T11:28:02.292Z,1524
2016-11-16T11:29:12.569Z,1680
2016-11-16T11:30:22.581Z,1880
2016-11-16T11:31:32.318Z,1936
2016-11-16T11:32:41.978Z,2000
2016-11-16T11:33:51.945Z,2200
2016-11-16T11:35:02.222Z,2208
2016-11-16T11:36:12.194Z,2356
2016-11-16T11:37:22.483Z,2372
2016-11-16T11:38:32.752Z,2276
2016-11-16T11:39:42.413Z,2284
2016-11-16T11:40:52.685Z,2264
2016-11-16T11:42:02.658Z,2184
2016-11-16T11:43:12.629Z,2164
2016-11-16T11:44:22.921Z,2084
2016-11-16T11:45:33.246Z,2000
2016-11-16T11:46:43.523Z,2172
2016-11-16T11:47:53.511Z,2296
2016-11-16T11:49:03.798Z,2292
2016-11-16T11:50:14.085Z,2064
2016-11-16T11:51:24.068Z,2152
2016-11-16T11:52:34.328Z,2256
2016-11-16T11:53:44.604Z,2292
2016-11-16T11:54:54.570Z,2240
2016-11-16T11:56:04.848Z,2420
2016-11-16T11:57:15.135Z,2564
2016-11-16T11:58:24.791Z,2596
2016-11-16T11:59:35.073Z,2444
2016-11-16T12:00:44.743Z,2144
2016-11-16T12:01:54.707Z,2068
2016-11-16T12:03:04.673Z,1944
2016-11-16T12:04:14.864Z,2116
2016-11-16T12:05:25.417Z,2116
2016-11-16T12:06:35.707Z,2076
2016-11-16T12:07:45.684Z,1812
2016-11-16T12:08:55.976Z,1360
2016-11-16T12:10:06.293Z,1016
2016-11-16T12:11:16.266Z,836
2016-11-16T12:12:25.943Z,792
2016-11-16T12:13:36.239Z,776
2016-11-16T12:14:46.200Z,844
2016-11-16T12:15:56.167Z,1008
2016-11-16T12:17:05.218Z,1220
2016-11-16T12:18:15.495Z,1304
2016-11-16T12:19:25.498Z,1304
2016-11-16T12:20:35.828Z,1296
2016-11-16T12:21:45.529Z,1428
2016-11-16T12:22:55.807Z,1564
2016-11-16T12:24:05.777Z,1660
2016-11-16T12:25:15.755Z,1744
2016-11-16T12:26:25.737Z,1780
2016-11-16T12:27:36.108Z,1652
2016-11-16T12:28:46.074Z,1564
2016-11-16T12:29:56.376Z,1428
2016-11-16T12:31:06.644Z,1396
2016-11-16T12:32:16.633Z,1300
2016-11-16T12:33:26.647Z,1216
2016-11-16T12:34:36.301Z,1268
2016-11-16T12:35:45.965Z,1332
2016-11-16T12:36:55.622Z,1444
2016-11-16T12:38:05.594Z,1468
2016-11-16T12:39:15.871Z,1544
2016-11-16T12:40:25.543Z,1528
2016-11-16T12:41:35.205Z,1476
2016-11-16T12:42:44.965Z,1452
2016-11-16T12:43:55.245Z,1548
2016-11-16T12:45:05.553Z,1616
2016-11-16T12:46:15.232Z,1536
2016-11-16T12:47:25.507Z,1456
2016-11-16T12:48:35.816Z,1364
2016-11-16T12:49:45.783Z,1296
2016-11-16T12:50:55.756Z,1288
2016-11-16T12:52:05.714Z,1200
2016-11-16T12:53:15.704Z,1200
2016-11-16T12:54:25.979Z,1124
2016-11-16T12:55:36.283Z,1008
2016-11-16T12:56:46.251Z,1032
2016-11-16T12:57:56.542Z,972
2016-11-16T12:59:06.817Z,860
2016-11-16T13:00:16.781Z,760
2016-11-16T13:01:26.767Z,704
2016-11-16T13:02:36.738Z,648
2016-11-16T13:03:46.720Z,660
2016-11-16T13:04:57.035Z,648
2016-11-16T13:06:07.347Z,648
2016-11-16T13:07:17.324Z,680
2016-11-16T13:08:27.325Z,676
2016-11-16T13:09:37.331Z,692
2016-11-16T13:10:46.985Z,672
2016-11-16T13:11:56.994Z,584
2016-11-16T13:13:07.003Z,608
2016-11-16T13:14:17.310Z,644
2016-11-16T13:15:27.602Z,676
2016-11-16T13:16:37.572Z,748
2016-11-16T13:17:47.585Z,760
2016-11-16T13:18:57.887Z,812
2016-11-16T13:20:08.137Z,904
2016-11-16T13:21:18.420Z,924
2016-11-16T13:22:28.387Z,1024
2016-11-16T13:23:38.044Z,1080
2016-11-16T13:24:48.305Z,1108
2016-11-16T13:25:58.262Z,1052
2016-11-16T13:27:08.219Z,1044
2016-11-16T13:28:18.506Z,1000
2016-11-16T13:29:28.787Z,972
2016-11-16T13:30:39.068Z,932
2016-11-16T13:31:49.055Z,956
2016-11-16T13:32:59.342Z,868
2016-11-16T13:34:09.024Z,900
2016-11-16T13:35:18.994Z,888
2016-11-16T13:36:29.301Z,656
2016-11-16T13:37:39.598Z,508
2016-11-16T13:38:49.585Z,536
2016-11-16T13:39:59.549Z,544
2016-11-16T13:41:09.528Z,580
2016-11-16T13:42:19.820Z,644
2016-11-16T13:43:29.803Z,728
2016-11-16T13:44:39.499Z,700
2016-11-16T13:45:49.175Z,680
2016-11-16T13:46:59.122Z,680
2016-11-16T13:48:09.419Z,600
2016-11-16T13:49:19.390Z,664
2016-11-16T13:50:29.362Z,756
2016-11-16T13:51:39.009Z,796
2016-11-16T13:52:49.291Z,764
2016-11-16T13:53:58.947Z,676
2016-11-16T13:55:08.601Z,684
2016-11-16T13:56:18.890Z,612
2016-11-16T13:57:29.225Z,544
2016-11-16T13:58:39.193Z,460
2016-11-16T13:59:49.471Z,400
2016-11-16T14:00:59.451Z,388
2016-11-16T14:02:09.738Z,356
2016-11-16T14:03:19.430Z,380
2016-11-16T14:04:29.706Z,360
2016-11-16T14:05:40.014Z,384
2016-11-16T14:06:50.291Z,468
2016-11-16T14:07:59.953Z,448
2016-11-16T14:09:10.227Z,392
2016-11-16T14:10:20.516Z,424
2016-11-16T14:11:30.477Z,456
2016-11-16T14:12:40.445Z,444
2016-11-16T14:13:50.415Z,480
2016-11-16T14:15:00.076Z,484
2016-11-16T14:16:10.353Z,484
2016-11-16T14:17:20.025Z,508
2016-11-16T14:18:30.006Z,472
2016-11-16T14:19:39.974Z,432
2016-11-16T14:20:49.940Z,460
2016-11-16T14:21:59.896Z,444
2016-11-16T14:23:09.557Z,404
2016-11-16T14:24:19.529Z,424
2016-11-16T14:25:30.055Z,448
2016-11-16T14:26:40.647Z,400
2016-11-16T14:27:50.614Z,368
2016-11-16T14:29:00.607Z,340
2016-11-16T14:30:10.893Z,336
2016-11-16T14:31:20.867Z,288
2016-11-16T14:32:31.156Z,268
2016-11-16T14:33:40.813Z,280
2016-11-16T14:34:51.105Z,288
2016-11-16T14:36:01.086Z,284
2016-11-16T14:37:11.359Z,264
2016-11-16T14:38:21.339Z,216
2016-11-16T14:39:30.992Z,180
2016-11-16T14:40:41.259Z,164
2016-11-16T14:41:51.240Z,136
2016-11-16T14:43:01.535Z,124
2016-11-16T14:44:11.498Z,132
2016-11-16T14:45:21.461Z,136
2016-11-16T14:46:31.140Z,136
2016-11-16T14:47:41.429Z,140
2016-11-16T14:48:51.400Z,120
2016-11-16T14:50:01.682Z,108
2016-11-16T14:51:11.947Z,92
2016-11-16T14:52:21.944Z,84
2016-11-16T14:53:32.227Z,72
2016-11-16T14:54:42.497Z,68
2016-11-16T14:55:52.902Z,60
2016-11-16T14:57:03.536Z,52
2016-11-16T14:58:13.216Z,48
2016-11-16T14:59:23.565Z,48
2016-11-16T15:00:33.965Z,44
2016-11-16T15:01:44.253Z,40
2016-11-16T15:02:54.550Z,40
2016-11-16T15:04:04.554Z,36
2016-11-16T15:05:14.981Z,36
2016-11-16T15:06:25.172Z,36
2016-11-16T15:07:35.463Z,28
2016-11-16T15:08:45.599Z,28
2016-11-16T15:09:56.250Z,28
2016-11-16T15:11:07.177Z,24
2016-11-16T15:12:17.197Z,20
2016-11-16T15:13:27.226Z,20
2016-11-16T15:14:37.542Z,16
2016-11-16T15:15:47.842Z,20
2016-11-16T15:16:57.826Z,20
2016-11-16T15:18:08.134Z,16
2016-11-16T15:19:17.915Z,16
2016-11-16T15:20:28.235Z,12
2016-11-16T15:21:37.677Z,12
2016-11-16T15:22:47.733Z,8
2016-11-16T15:23:57.858Z,8
2016-11-16T15:25:08.217Z,8
2016-11-16T15:26:18.319Z,4
2016-11-16T15:27:28.342Z,4
2016-11-16T15:28:38.657Z,4
2016-11-16T15:29:48.651Z,4
2016-11-16T15:30:58.074Z,4
2016-11-16T15:32:07.819Z,4
2016-11-16T15:33:18.109Z,0
2016-11-16T15:34:28.596Z,4
2016-11-16T15:35:38.642Z,4
2016-11-16T15:36:48.995Z,4
2016-11-16T15:37:59.354Z,0
2016-11-16T15:39:09.435Z,0
2016-11-16T15:40:19.451Z,0
2016-11-16T15:41:29.787Z,0
2016-11-16T15:42:39.138Z,0
2016-11-16T15:43:49.152Z,0
2016-11-16T15:44:59.122Z,0
2016-11-16T15:46:09.130Z,0
2016-11-16T15:47:19.289Z,0
2016-11-16T15:48:29.675Z,0
2016-11-16T15:49:39.530Z,0
2016-11-16T15:50:49.235Z,0
2016-11-16T15:51:59.823Z,0
2016-11-16T15:53:09.658Z,0
2016-11-16T15:54:19.672Z,0
2016-11-16T15:55:30.072Z,0
2016-11-16T15:56:40.522Z,0
2016-11-16T15:57:50.578Z,0
2016-11-16T15:59:00.900Z,0
2016-11-16T16:00:10.934Z,0
2016-11-16T16:01:20.937Z,0
2016-11-16T16:02:30.958Z,0
2016-11-16T16:03:41.311Z,0
2016-11-16T16:04:51.644Z,0
2016-11-16T16:06:01.968Z,0
2016-11-16T16:07:12.435Z,0
2016-11-16T16:08:22.782Z,0
2016-11-16T16:09:33.728Z,0
2016-11-16T16:10:44.078Z,0
2016-11-16T16:11:54.138Z,0
2016-11-16T16:13:04.235Z,0
2016-11-16T16:14:14.246Z,0
2016-11-16T16:15:24.548Z,0
2016-11-16T16:16:34.937Z,0
2016-11-16T16:17:45.241Z,0
2016-11-16T16:18:55.235Z,0
2016-11-16T16:20:05.534Z,0
2016-11-16T16:21:15.537Z,0
2016-11-16T16:22:25.848Z,0
2016-11-16T16:23:36.134Z,0
2016-11-16T16:24:46.486Z,0
2016-11-16T16:25:56.795Z,0
2016-11-16T16:27:06.788Z,0
2016-11-16T16:28:16.154Z,0
2016-11-16T16:29:26.453Z,0
2016-11-16T16:30:36.452Z,0
2016-11-16T16:31:46.140Z,0
2016-11-16T16:32:56.140Z,0
2016-11-16T16:34:06.123Z,0
2016-11-16T16:35:15.515Z,0
2016-11-16T16:36:25.806Z,0
2016-11-16T16:37:36.082Z,0
2016-11-16T16:38:46.373Z,0
2016-11-16T16:39:56.051Z,0
2016-11-16T16:41:06.403Z,0
2016-11-16T16:42:16.700Z,0
2016-11-16T16:43:27.002Z,0
2016-11-16T16:44:37.302Z,0
2016-11-16T16:45:47.303Z,0
2016-11-16T16:46:57.280Z,0
2016-11-16T16:48:07.559Z,0
2016-11-16T16:49:17.259Z,0
2016-11-16T16:50:27.235Z,0
2016-11-16T16:51:37.529Z,0
2016-11-16T16:52:47.814Z,0
2016-11-16T16:53:58.129Z,0
2016-11-16T16:55:08.226Z,0
2016-11-16T16:56:18.537Z,0